Terminal Aerodrome Forecast
Issued by NWS

Home | Current Version | Previous Version | Text Only | Print | Product List | Glossary On
Versions: 1 2 3 4 5 6 7 8 9 10 11 12 13 14 15 16 17 18 19 20 21 22 23 24 25
000
FTUS42 KMFL 252059 AAA
TAFTMB
TAF AMD
KTMB 252059Z 2521/2618 VRB06KT P6SM FEW030 SCT090 BKN250
     FM260000 VRB03KT P6SM SCT035
     FM261700 11010KT P6SM VCTS SCT030CB SCT250=

USA.gov is the U.S. government's official web portal to all federal, state and local government web resources and services.